Flight Track Log - Related Links

Times and Time Zones

All times are in EDT time to prevent confusion due to time zone crossing. See the SWA3317 flight status page for this flight to view local times or setup timezone preferences in your user account.

Time Position Orientation Groundspeed Altitude Reporting Facility
EDT Latitude Longitude Course Direction KTS MPH feet Rate Location/Type
Sat 06:02:15 PM 28.4500 -81.3167 360° North 182 209 1,100  Level Orlando TRACON
Sat 06:02:52 PM 28.4833 -81.3167 360° North 190 219 2,100 1,670 Climbing Orlando TRACON
Sat 06:03:52 PM 28.5500 -81.3167 360° North 259 298 3,800 2,350 Climbing Orlando TRACON
Sat 06:04:52 PM 28.5833 -81.3833 300° West 279 321 6,800 2,480 Climbing Orlando TRACON
Sat 06:06:51 PM 28.5689 -81.5664 265° West 292 336 11,200 2,212 Climbing Jacksonville Center
Sat 06:07:51 PM 28.5575 -81.6778 263° West 317 365 13,400 2,350 Climbing Jacksonville Center
Sat 06:08:51 PM 28.5439 -81.7936 262° West 358 412 15,900 2,250 Climbing Jacksonville Center
Sat 06:09:51 PM 28.5281 -81.9119 261° West 373 429 17,900 1,900 Climbing Jacksonville Center
Sat 06:10:51 PM 28.5164 -82.0350 264° West 390 449 19,700 1,650 Climbing Jacksonville Center
Sat 06:11:51 PM 28.4983 -82.1533 260° West 410 472 21,200 1,650 Climbing Jacksonville Center
Sat 06:12:51 PM 28.4844 -82.2856 263° West 422 486 23,000 1,700 Climbing Jacksonville Center
Sat 06:13:51 PM 28.4725 -82.4203 264° West 428 493 24,600 1,350 Climbing Jacksonville Center
Sat 06:14:51 PM 28.4625 -82.5572 265° West 433 498 25,700 1,100 Climbing Jacksonville Center
Sat 06:15:51 PM 28.5336 -82.6681 306° West 409 471 26,800 1,150 Climbing Jacksonville Center
Sat 06:16:51 PM 28.6422 -82.7506 326° Northwest 421 484 28,000 1,350 Climbing Jacksonville Center
Sat 06:17:51 PM 28.7467 -82.8358 324° Northwest 438 504 29,500 1,500 Climbing Jacksonville Center
Sat 06:18:51 PM 28.8469 -82.9233 323° Northwest 455 524 31,000 1,400 Climbing Jacksonville Center
Sat 06:19:51 PM 28.9450 -83.0136 321° Northwest 460 529 32,300 1,200 Climbing Jacksonville Center
Sat 06:20:51 PM 28.9992 -83.1467 295° West 448 516 33,400 1,150 Climbing Jacksonville Center
Sat 06:21:51 PM 29.0467 -83.2750 293° West 448 516 34,600 950 Climbing Jacksonville Center
Sat 06:22:51 PM 29.0964 -83.4083 293° West 449 517 35,300 700 Climbing Jacksonville Center
Sat 06:23:51 PM 29.1417 -83.5417 291° West 454 522 36,000 350 Climbing Jacksonville Center
Sat 06:24:51 PM 29.1911 -83.6750 293° West 454 522 36,000  Level Jacksonville Center
Sat 06:25:51 PM 29.2361 -83.8064 291° West 454 522 36,000  Level Jacksonville Center
Sat 06:26:51 PM 29.2831 -83.9400 292° West 454 522 36,000  Level Jacksonville Center
Sat 06:27:51 PM 29.3300 -84.0717 292° West 454 522 36,000  Level Jacksonville Center
Sat 06:28:51 PM 29.3747 -84.2033 291° West 449 517 36,000  Level Jacksonville Center
Sat 06:29:51 PM 29.4211 -84.3350 292° West 449 517 36,000  Level Jacksonville Center
Sat 06:30:51 PM 29.4675 -84.4789 290° West 449 517 36,000  Level Jacksonville Center
Sat 06:31:51 PM 29.5119 -84.5989 293° West 443 510 36,000  Level Jacksonville Center
Sat 06:32:51 PM 29.5561 -84.7286 291° West 443 510 36,000  Level Jacksonville Center
Sat 06:33:51 PM 29.6019 -84.8608 292° West 443 510 36,000  Level Jacksonville Center
Sat 06:34:51 PM 29.6458 -84.9931 291° West 443 510 36,000  Level Jacksonville Center
Sat 06:35:52 PM 29.6956 -85.1375 292° West 448 516 36,000  Level Jacksonville Center
Sat 06:36:51 PM 29.7411 -85.2725 291° West 454 522 36,000  Level Jacksonville Center
Sat 06:37:51 PM 29.7867 -85.4053 292° West 454 522 36,000  Level Jacksonville Center
Sat 06:38:51 PM 29.8297 -85.5428 290° West 454 522 36,000  Level Jacksonville Center
Sat 06:39:51 PM 29.8750 -85.6783 291° West 454 522 36,000  Level Jacksonville Center
Sat 06:40:51 PM 29.9219 -85.8114 292° West 454 522 36,000  Level Jacksonville Center
Sat 06:41:51 PM 29.9669 -85.9469 291° West 454 522 36,000  Level Jacksonville Center
Sat 06:42:51 PM 30.0117 -86.0828 291° West 454 522 36,000  Level Jacksonville Center
Sat 06:43:51 PM 30.0583 -86.2161 292° West 454 522 36,000  Level Jacksonville Center
Sat 06:44:51 PM 30.1006 -86.3569 289° West 454 522 36,000  Level Jacksonville Center
Sat 06:45:51 PM 30.1342 -86.4950 286° West 454 522 36,000  Level Jacksonville Center
Sat 06:46:51 PM 30.1658 -86.6331 285° West 448 516 36,000  Level Jacksonville Center
Sat 06:47:51 PM 30.1992 -86.7736 285° West 448 516 36,000  Level Jacksonville Center
Sat 06:48:52 PM 30.2492 -86.9056 294° West 448 516 36,000  Level Jacksonville Center
Sat 06:49:51 PM 30.3017 -87.0306 296° West 443 510 36,000  Level Jacksonville Center
Sat 06:50:51 PM 30.3536 -87.1603 295° West 443 510 36,000  Level Jacksonville Center
Sat 06:51:51 PM 30.4036 -87.2925 294° West 443 510 36,000  Level Jacksonville Center
Sat 06:52:51 PM 30.4575 -87.4228 296° West 443 510 36,000  Level Jacksonville Center
Sat 06:53:51 PM 30.5089 -87.5553 294° West 443 510 36,000  Level Jacksonville Center
Sat 06:54:32 PM 30.5394 -87.6289 296° West 448 516 36,000  Level Houston Center
Sat 06:55:34 PM 30.5903 -87.7597 294° West 448 516 36,000  Level Houston Center
Sat 06:56:35 PM 30.6411 -87.8903 294° West 445 512 36,000  Level Houston Center
Sat 06:57:37 PM 30.6986 -88.0386 294° West 444 511 36,000  Level Houston Center
Sat 06:58:39 PM 30.7489 -88.1681 294° West 443 510 36,000  Level Houston Center
Sat 06:59:40 PM 30.7975 -88.2972 294° West 442 509 36,000  Level Houston Center
Sat 07:00:42 PM 30.8475 -88.4253 294° West 439 505 36,000  Level Houston Center
Sat 07:01:43 PM 30.8989 -88.5547 295° West 438 504 36,000  Level Houston Center
Sat 07:02:45 PM 30.9539 -88.7011 294° West 437 503 36,000  Level Houston Center
Sat 07:03:46 PM 31.0042 -88.8311 294° West 438 504 36,000  Level Houston Center
Sat 07:04:48 PM 31.0581 -88.9706 294° West 440 506 36,000  Level Houston Center
Sat 07:05:49 PM 31.1072 -89.1017 294° West 443 510 36,000  Level Houston Center
Sat 07:06:51 PM 31.1561 -89.2317 294° West 441 507 36,000  Level Houston Center
Sat 07:07:52 PM 31.2058 -89.3633 294° West 445 512 36,000  Level Houston Center
Sat 07:08:54 PM 31.2544 -89.4928 294° West 442 509 36,000  Level Houston Center
Sat 07:09:55 PM 31.3033 -89.6211 294° West 439 505 36,000  Level Houston Center
Sat 07:10:57 PM 31.3597 -89.7756 293° West 435 501 36,000  Level Houston Center
Sat 07:11:58 PM 31.4083 -89.9039 294° West 434 499 36,000  Level Houston Center
Sat 07:13:00 PM 31.4553 -90.0333 293° West 434 499 36,000  Level Houston Center
Sat 07:14:02 PM 31.5031 -90.1628 293° West 434 499 36,000  Level Houston Center
Sat 07:15:03 PM 31.5506 -90.2925 293° West 435 501 36,000  Level Houston Center
Sat 07:16:05 PM 31.5983 -90.4225 293° West 435 501 36,000  Level Houston Center
Sat 07:18:08 PM 31.7025 -90.7117 293° West 437 503 36,000  Level Houston Center
Sat 07:19:09 PM 31.7497 -90.8436 293° West 437 503 36,000  Level Houston Center
Sat 07:20:11 PM 31.7969 -90.9742 293° West 438 504 36,000  Level Houston Center
Sat 07:20:48 PM 31.8286 -91.0625 293° West 438 504 36,000  Level Houston Center
Sat 07:22:39 PM 31.9122 -91.2975 293° West 437 503 36,000  Level Houston Center
Sat 07:23:40 PM 31.9606 -91.4289 293° West 437 503 36,000  Level Houston Center
Sat 07:24:42 PM 32.0378 -91.5417 309° West 441 507 36,000  Level Houston Center
Sat 07:25:43 PM 32.1147 -91.6531 309° West 442 509 36,000  Level Houston Center
Sat 07:26:45 PM 32.1958 -91.7622 311° West 443 510 36,000  Level Houston Center
Sat 07:27:47 PM 32.3081 -91.8772 319° Northwest 447 514 36,000  Level Houston Center
Sat 07:28:44 PM 32.3892 -91.9592 320° Northwest 445 512 36,000  Level Memphis Center
Sat 07:29:18 PM 32.4406 -92.0125 319° Northwest 446 513 36,000  Level Fort Worth Center
Sat 07:30:20 PM 32.5008 -92.1353 300° West 438 504 36,000  Level Fort Worth Center
Sat 07:31:21 PM 32.5422 -92.3000 287° West 438 504 36,000  Level Fort Worth Center
Sat 07:32:23 PM 32.5767 -92.4361 287° West 436 502 36,000  Level Fort Worth Center
Sat 07:33:25 PM 32.6133 -92.5800 287° West 435 501 36,000  Level Fort Worth Center
Sat 07:34:27 PM 32.6492 -92.7153 287° West 435 501 36,000  Level Fort Worth Center
Sat 07:35:29 PM 32.6828 -92.8525 286° West 435 501 36,000  Level Fort Worth Center
Sat 07:37:01 PM 32.7350 -93.0625 287° West 433 498 36,000  Level Houston Center
Sat 07:37:33 PM 32.7511 -93.1258 287° West 433 498 36,000  Level Fort Worth Center
Sat 07:38:34 PM 32.7856 -93.2625 287° West 431 496 36,000  Level Fort Worth Center
Sat 07:39:36 PM 32.8189 -93.3961 287° West 428 493 36,000  Level Fort Worth Center
Sat 07:40:38 PM 32.8592 -93.5597 286° West 427 491 36,000  Level Fort Worth Center
Sat 07:41:40 PM 32.8928 -93.6958 286° West 427 491 36,000  Level Fort Worth Center
Sat 07:43:44 PM 32.9592 -93.9703 286° West 428 493 36,000  Level Fort Worth Center
Sat 07:44:46 PM 32.9928 -94.1083 286° West 428 493 36,000  Level Fort Worth Center
Sat 07:45:48 PM 33.0256 -94.2467 286° West 429 494 36,000  Level Fort Worth Center
Sat 07:46:50 PM 33.0594 -94.3831 287° West 427 491 36,000  Level Fort Worth Center
Sat 07:47:52 PM 33.0919 -94.5219 286° West 430 495 36,000  Level Fort Worth Center
Sat 07:48:53 PM 33.1322 -94.6864 286° West 429 494 36,000  Level Fort Worth Center
Sat 07:49:55 PM 33.1647 -94.8236 286° West 429 494 36,000  Level Fort Worth Center
Sat 07:50:57 PM 33.1961 -94.9597 285° West 427 491 36,000  Level Fort Worth Center
Sat 07:51:59 PM 33.2281 -95.0975 286° West 428 493 36,000  Level Fort Worth Center
Sat 07:53:01 PM 33.2603 -95.2328 286° West 427 491 36,000  Level Fort Worth Center
Sat 07:54:03 PM 33.2883 -95.3681 284° West 424 488 36,000  Level Fort Worth Center
Sat 07:55:05 PM 33.3211 -95.5022 286° West 420 483 36,000  Level Fort Worth Center
Sat 07:56:07 PM 33.3567 -95.6478 286° West 419 482 36,000  Level Fort Worth Center
Sat 07:57:08 PM 33.3869 -95.7803 285° West 418 481 36,000  Level Fort Worth Center
Sat 07:58:10 PM 33.4164 -95.9114 285° West 415 478 36,000  Level Fort Worth Center
Sat 07:59:12 PM 33.4506 -96.0717 284° West 415 478 36,000  Level Fort Worth Center
Sat 08:00:14 PM 33.4806 -96.2025 285° West 411 473 36,000  Level Fort Worth Center
Sat 08:01:16 PM 33.5100 -96.3344 285° West 413 475 36,000  Level Fort Worth Center
Sat 08:02:18 PM 33.5389 -96.4658 285° West 411 473 36,000  Level Fort Worth Center
Sat 08:03:20 PM 33.5678 -96.5983 285° West 413 475 36,000  Level Fort Worth Center
Sat 08:04:22 PM 33.6025 -96.7567 285° West 411 473 36,000  Level Fort Worth Center
Sat 08:05:24 PM 33.6306 -96.8864 285° West 409 471 36,000  Level Fort Worth Center
Sat 08:06:26 PM 33.6594 -97.0172 285° West 407 468 36,000  Level Fort Worth Center
Sat 08:07:28 PM 33.6861 -97.1478 284° West 406 467 36,000  Level Fort Worth Center
Sat 08:08:30 PM 33.7144 -97.2769 285° West 406 467 36,000  Level Fort Worth Center
Sat 08:09:32 PM 33.7422 -97.4075 284° West 406 467 36,000  Level Fort Worth Center
Sat 08:10:34 PM 33.7747 -97.5614 284° West 401 461 36,000  Level Fort Worth Center
Sat 08:11:36 PM 33.8011 -97.6908 284° West 401 461 36,000  Level Fort Worth Center
Sat 08:12:38 PM 33.8289 -97.8192 285° West 399 459 36,000  Level Fort Worth Center
Sat 08:13:39 PM 33.8550 -97.9483 284° West 399 459 36,000  Level Fort Worth Center
Sat 08:14:41 PM 33.8811 -98.0781 284° West 399 459 36,000  Level Fort Worth Center
Sat 08:15:43 PM 33.9078 -98.2050 284° West 399 459 36,000  Level Fort Worth Center
Sat 08:16:45 PM 33.9531 -98.3533 290° West 399 459 36,000  Level Fort Worth Center
Sat 08:17:47 PM 33.9983 -98.4731 295° West 396 456 36,000  Level Fort Worth Center
Sat 08:18:49 PM 34.0461 -98.5931 296° West 396 456 36,000  Level Fort Worth Center
Sat 08:19:51 PM 34.0950 -98.7156 296° West 396 456 36,000  Level Fort Worth Center
Sat 08:20:52 PM 34.1408 -98.8328 295° West 397 457 36,000  Level Fort Worth Center
Sat 08:21:54 PM 34.1900 -98.9553 296° West 395 455 36,000  Level Fort Worth Center
Sat 08:22:56 PM 34.2381 -99.0750 296° West 394 453 36,000  Level Fort Worth Center
Sat 08:23:58 PM 34.2925 -99.2100 296° West 392 451 36,000  Level Fort Worth Center
Sat 08:24:59 PM 34.3408 -99.3283 296° West 392 451 36,000  Level Fort Worth Center
Sat 08:26:01 PM 34.3936 -99.4525 297° West 391 450 36,000  Level Fort Worth Center
Sat 08:27:03 PM 34.4428 -99.5692 297° West 387 445 36,000  Level Fort Worth Center
Sat 08:28:05 PM 34.4725 -99.6953 286° West 391 450 36,000  Level Fort Worth Center
Sat 08:29:06 PM 34.4956 -99.8150 283° West 390 449 36,000  Level Fort Worth Center
Sat 08:30:08 PM 34.5019 -99.9706 273° West 389 448 36,000  Level Fort Worth Center
Sat 08:30:33 PM 34.5031 -100.0222 272° West 388 447 36,000  Level Fort Worth Center
Sat 08:31:34 PM 34.5042 -100.1525 271° West 387 445 36,000  Level Fort Worth Center
Sat 08:33:37 PM 34.5058 -100.4094 271° West 386 444 36,000  Level Albuquerque Center
Sat 08:34:39 PM 34.5064 -100.5392 270° West 385 443 36,000  Level Albuquerque Center
Sat 08:35:40 PM 34.5072 -100.6656 270° West 383 441 36,000  Level Albuquerque Center
Sat 08:36:41 PM 34.5075 -100.7953 270° West 382 440 36,000  Level Albuquerque Center
Sat 08:37:43 PM 34.5069 -100.9233 270° West 382 440 36,000  Level Albuquerque Center
Sat 08:38:44 PM 34.5083 -101.0522 271° West 382 440 36,000  Level Albuquerque Center
Sat 08:39:47 PM 34.5078 -101.2078 270° West 382 440 36,000  Level Fort Worth Center
Sat 08:40:49 PM 34.5069 -101.3389 270° West 384 442 36,000  Level Fort Worth Center
Sat 08:41:51 PM 34.5067 -101.4681 270° West 384 442 36,000  Level Fort Worth Center
Sat 08:42:52 PM 34.5064 -101.5983 270° West 385 443 36,000  Level Fort Worth Center
Sat 08:43:54 PM 34.5061 -101.7264 270° West 384 442 36,000  Level Fort Worth Center
Sat 08:44:56 PM 34.5053 -101.8561 270° West 384 442 36,000  Level Fort Worth Center
Sat 08:45:57 PM 34.5044 -101.9853 270° West 384 442 36,000  Level Fort Worth Center
Sat 08:46:59 PM 34.5033 -102.1397 270° West 383 441 36,000  Level Fort Worth Center
Sat 08:48:00 PM 34.5025 -102.2683 270° West 382 440 36,000  Level Fort Worth Center
Sat 08:49:02 PM 34.5011 -102.3964 269° West 382 440 36,000  Level Fort Worth Center
Sat 08:49:58 PM 34.5017 -102.4969 270° West 381 438 36,000  Level Albuquerque Center
Sat 08:50:59 PM 34.5025 -102.6239 270° West 380 437 36,000  Level Albuquerque Center
Sat 08:52:00 PM 34.5039 -102.7744 271° West 377 434 36,000  Level Albuquerque Center
Sat 08:53:01 PM 34.5053 -102.9036 271° West 377 434 36,000  Level Albuquerque Center
Sat 08:54:03 PM 34.5061 -103.0289 270° West 376 433 36,000  Level Albuquerque Center
Sat 08:55:04 PM 34.5072 -103.1556 271° West 374 430 36,000  Level Albuquerque Center
Sat 08:56:05 PM 34.4978 -103.2828 265° West 374 430 36,000  Level Albuquerque Center
Sat 08:57:06 PM 34.4958 -103.4094 269° West 374 430 36,000  Level Albuquerque Center
Sat 08:58:08 PM 34.4925 -103.5414 268° West 383 441 36,000  Level Albuquerque Center
Sat 08:59:09 PM 34.5050 -103.6736 277° West 388 447 36,000  Level Albuquerque Center
Sat 09:00:10 PM 34.5183 -103.8064 277° West 388 447 36,000  Level Albuquerque Center
Sat 09:01:11 PM 34.5369 -103.9372 280° West 388 447 36,000  Level Albuquerque Center
Sat 09:02:12 PM 34.5617 -104.0672 283° West 389 448 36,000  Level Albuquerque Center
Sat 09:03:14 PM 34.5861 -104.1967 283° West 389 448 36,000  Level Albuquerque Center
Sat 09:04:15 PM 34.6097 -104.3256 283° West 389 448 36,000 344 Level Albuquerque Center
Sat 09:05:16 PM 34.6339 -104.4556 283° West 389 448 36,700 885 Climbing Albuquerque Center
Sat 09:06:17 PM 34.6578 -104.5864 283° West 390 449 37,800 639 Climbing Albuquerque Center
Sat 09:07:18 PM 34.6811 -104.7142 283° West 388 447 38,000 98 Climbing Albuquerque Center
Sat 09:08:20 PM 34.7053 -104.8461 283° West 389 448 38,000  Level Albuquerque Center
Sat 09:09:21 PM 34.7297 -104.9786 283° West 393 452 38,000  Level Albuquerque Center
Sat 09:10:22 PM 34.7531 -105.1122 282° West 398 458 38,000  Level Albuquerque Center
Sat 09:11:24 PM 34.7767 -105.2439 282° West 398 458 38,000  Level Albuquerque Center
Sat 09:12:25 PM 34.8042 -105.3964 282° West 396 456 38,000  Level Albuquerque Center
Sat 09:13:26 PM 34.8267 -105.5258 282° West 392 451 38,000  Level Albuquerque Center
Sat 09:14:27 PM 34.8492 -105.6550 282° West 391 450 38,000  Level Albuquerque Center
Sat 09:15:29 PM 34.8711 -105.7842 282° West 391 450 38,000  Level Albuquerque Center
Sat 09:16:30 PM 34.8928 -105.9136 282° West 391 450 38,000  Level Albuquerque Center
Sat 09:17:31 PM 34.9150 -106.0444 282° West 391 450 38,000  Level Albuquerque Center
Sat 09:18:33 PM 34.9364 -106.1731 282° West 389 448 38,000  Level Albuquerque Center
Sat 09:19:34 PM 34.9586 -106.3025 282° West 389 448 38,000  Level Albuquerque Center
Sat 09:20:35 PM 34.9800 -106.4325 281° West 389 448 38,000  Level Albuquerque Center
Sat 09:21:36 PM 35.0011 -106.5600 281° West 386 444 38,000  Level Albuquerque Center
Sat 09:22:38 PM 35.0225 -106.6881 282° West 386 444 38,000  Level Albuquerque Center
Sat 09:23:39 PM 35.0439 -106.8175 281° West 386 444 38,000  Level Albuquerque Center
Sat 09:24:40 PM 35.0744 -106.9581 285° West 386 444 38,000  Level Albuquerque Center
Sat 09:25:41 PM 35.1042 -107.0939 285° West 386 444 38,000  Level Albuquerque Center
Sat 09:26:43 PM 35.1325 -107.2194 285° West 389 448 38,000  Level Albuquerque Center
Sat 09:27:44 PM 35.1581 -107.3375 285° West 381 438 38,000  Level Albuquerque Center
Sat 09:28:45 PM 35.1878 -107.4733 285° West 371 427 38,000  Level Albuquerque Center
Sat 09:29:46 PM 35.2097 -107.5958 282° West 384 442 38,000  Level Albuquerque Center
Sat 09:30:48 PM 35.2308 -107.7125 283° West 375 432 38,000  Level Albuquerque Center
Sat 09:31:49 PM 35.2403 -107.8556 275° West 375 432 38,000  Level Albuquerque Center
Sat 09:32:50 PM 35.2514 -107.9756 277° West 375 432 38,000  Level Albuquerque Center
Sat 09:33:51 PM 35.2633 -108.0950 277° West 372 428 38,000  Level Albuquerque Center
Sat 09:34:52 PM 35.2758 -108.2342 276° West 369 425 38,000  Level Albuquerque Center
Sat 09:35:54 PM 35.2861 -108.3542 276° West 369 425 38,000  Level Albuquerque Center
Sat 09:36:55 PM 35.2986 -108.4939 276° West 369 425 38,000  Level Albuquerque Center
Sat 09:37:56 PM 35.3089 -108.6139 276° West 369 425 38,000  Level Albuquerque Center
Sat 09:38:57 PM 35.3194 -108.7347 276° West 369 425 38,000  Level Albuquerque Center
Sat 09:39:58 PM 35.3308 -108.8775 276° West 370 426 38,000  Level Albuquerque Center
Sat 09:40:59 PM 35.3411 -109.0003 276° West 373 429 38,000  Level Albuquerque Center
Sat 09:42:00 PM 35.3514 -109.1239 276° West 375 432 38,000  Level Albuquerque Center
Sat 09:43:02 PM 35.3631 -109.2689 276° West 377 434 38,000  Level Albuquerque Center
Sat 09:44:03 PM 35.3733 -109.3939 276° West 380 437 38,000  Level Albuquerque Center
Sat 09:45:04 PM 35.3833 -109.5167 276° West 381 438 38,000  Level Albuquerque Center
Sat 09:46:05 PM 35.3928 -109.6594 275° West 380 437 38,000  Level Albuquerque Center
Sat 09:47:06 PM 35.4022 -109.7819 275° West 378 435 38,000  Level Albuquerque Center
Sat 09:48:07 PM 35.4106 -109.9033 275° West 377 434 38,000  Level Albuquerque Center
Sat 09:49:08 PM 35.4206 -110.0453 275° West 376 433 38,000  Level Albuquerque Center
Sat 09:50:09 PM 35.4283 -110.1669 275° West 376 433 38,000  Level Albuquerque Center
Sat 09:51:10 PM 35.4383 -110.3069 275° West 375 432 38,000  Level Albuquerque Center
Sat 09:52:11 PM 35.4469 -110.4272 275° West 373 429 38,000  Level Albuquerque Center
Sat 09:53:12 PM 35.4542 -110.5481 274° West 373 429 38,000  Level Albuquerque Center
Sat 09:54:14 PM 35.4628 -110.6900 274° West 373 429 38,000 -195 Level Albuquerque Center
Sat 09:55:15 PM 35.4733 -110.8147 276° West 376 433 37,600 -689 Descending Albuquerque Center
Sat 09:56:16 PM 35.4803 -110.9383 274° West 377 434 36,600 -1,180 Descending Albuquerque Center
Sat 09:57:17 PM 35.4892 -111.0817 274° West 377 434 35,200 -1,328 Descending Albuquerque Center
Sat 09:58:18 PM 35.4983 -111.2058 275° West 378 435 33,900 -1,180 Descending Albuquerque Center
Sat 09:59:19 PM 35.5061 -111.3311 274° West 380 437 32,800 -1,082 Descending Albuquerque Center
Sat 10:00:20 PM 35.5153 -111.4600 275° West 383 441 31,700 -1,131 Descending Albuquerque Center
Sat 10:01:21 PM 35.5228 -111.5878 274° West 382 440 30,500 -836 Descending Albuquerque Center
Sat 10:02:22 PM 35.5297 -111.7147 274° West 379 436 30,000 -246 Descending Albuquerque Center
Sat 10:03:23 PM 35.5389 -111.8781 274° West 393 452 30,000 -98 Level Albuquerque Center
Sat 10:04:24 PM 35.5472 -112.0233 274° West 416 479 29,800 -590 Descending Albuquerque Center
Sat 10:05:25 PM 35.5547 -112.1667 274° West 420 483 28,800 -908 Descending Albuquerque Center
Sat 10:06:23 PM 35.5639 -112.3114 274° West 424 488 28,000 -403 Descending Los Angeles Center
Sat 10:07:24 PM 35.5714 -112.4589 274° West 428 493 28,000  Level Los Angeles Center
Sat 10:08:25 PM 35.5800 -112.6061 274° West 432 497 28,000  Level Los Angeles Center
Sat 10:09:27 PM 35.5881 -112.7581 274° West 434 499 28,000  Level Los Angeles Center
Sat 10:10:28 PM 35.5947 -112.9078 273° West 437 503 28,000 -541 Level Los Angeles Center
Sat 10:11:29 PM 35.6025 -113.0711 273° West 436 502 26,900 -1,024 Descending Los Angeles Center
Sat 10:12:31 PM 35.6097 -113.2178 274° West 434 499 25,900 -1,024 Descending Los Angeles Center
Sat 10:13:32 PM 35.6167 -113.3664 273° West 433 498 24,800 -1,033 Descending Los Angeles Center
Sat 10:14:33 PM 35.6236 -113.5122 273° West 433 498 23,800 -976 Descending Los Angeles Center
Sat 10:15:35 PM 35.6403 -113.6550 278° West 428 493 22,800 -1,268 Descending Los Angeles Center
Sat 10:16:36 PM 35.6611 -113.7994 280° West 428 493 21,200 -2,098 Descending Los Angeles Center
Sat 10:17:38 PM 35.6811 -113.9389 280° West 423 487 18,500 -2,732 Descending Los Angeles Center
Sat 10:18:39 PM 35.7008 -114.0758 280° West 414 476 15,600 -2,854 Descending Los Angeles Center
Sat 10:19:00 PM 35.7069 -114.1306 278° West 407 468 14,600 -2,459 Descending Los Angeles Center
Sat 10:19:40 PM 35.7189 -114.2114 280° West 404 465 13,100 -1,471 Descending Los Angeles Center
Sat 10:20:42 PM 35.7358 -114.3372 279° West 382 440 12,100 -878 Descending Los Angeles Center
Sat 10:21:43 PM 35.8139 -114.4197 319° Northwest 344 396 11,300 -885 Descending Los Angeles Center
Sat 10:22:44 PM 35.8967 -114.4408 348° North 312 359 10,300 -634 Descending Los Angeles Center
Sat 10:23:46 PM 35.9783 -114.4481 356° North 294 338 10,000 -439 Descending Los Angeles Center
Sat 10:24:47 PM 36.0553 -114.4564 355° North 285 328 9,400 -984 Descending Los Angeles Center
Sat 10:25:48 PM 36.1258 -114.5028 332° Northwest 294 338 8,000 -683 Descending Los Angeles Center
Sat 10:26:50 PM 36.1775 -114.5756 311° West 287 330 8,000  Level Los Angeles Center
Sat 10:27:00 PM 36.1892 -114.6003 300° West 287 330 8,000  Level Los Angeles Center
Sat 10:27:51 PM 36.2044 -114.6647 286° West 292 336 8,000  Level Los Angeles Center
Sat 10:28:01 PM 36.1983 -114.6906 254° West 282 325 8,000  Level Los Angeles Center
Sat 10:28:52 PM 36.1847 -114.7500 254° West 261 300 8,000  Level Los Angeles Center
Sat 10:29:54 PM 36.1644 -114.8278 252° West 244 281 8,000 -585 Level Los Angeles Center
Sat 10:30:55 PM 36.1447 -114.9094 253° West 217 250 6,800 -1,131 Descending Los Angeles Center
Sat 10:31:56 PM 36.1325 -114.9767 257° West 206 237 5,700 -1,220 Descending Los Angeles Center
Sat 10:32:58 PM 36.1367 -115.0475 274° West 196 226 4,300 -1,171 Descending Los Angeles Center
Sat 10:33:59 PM 36.1361 -115.1058 269° West 169 194 3,300 -934 Descending Los Angeles Center
Sat 10:35:00 PM 36.1081 -115.1475 230° Southwest 160 184 2,400 -885 Descending Los Angeles Center
Sat 10:37:00 PM 36.0801 -115.1523 251° West  Level Estimated

Login

Don't have an account? Register now (free) for customized features, flight alerts, and more!